createdAt,value
2018-03-04T00:00:52.458Z,88.20
2018-03-04T00:03:18.833Z,83.78
2018-03-04T00:05:45.254Z,92.62
2018-03-04T00:08:11.676Z,90.30
2018-03-04T00:10:38.789Z,97.00
2018-03-04T00:13:05.196Z,100.00
2018-03-04T00:15:31.580Z,95.05
2018-03-04T00:17:58.068Z,101.62
2018-03-04T00:20:24.546Z,99.90
2018-03-04T00:22:50.932Z,99.57
2018-03-04T00:25:17.337Z,101.72
2018-03-04T00:27:44.482Z,99.68
2018-03-04T00:30:11.650Z,110.20
2018-03-04T00:32:38.062Z,98.60
2018-03-04T00:35:05.192Z,103.37
2018-03-04T00:37:31.606Z,100.03
2018-03-04T00:39:58.000Z,105.47
2018-03-04T00:42:32.258Z,102.28
2018-03-04T00:44:58.659Z,106.00
2018-03-04T00:47:25.054Z,94.15
2018-03-04T00:49:51.518Z,108.37
2018-03-04T00:52:18.651Z,110.90
2018-03-04T00:54:45.069Z,108.65
2018-03-04T00:57:11.450Z,114.65
2018-03-04T00:59:37.865Z,106.80
2018-03-04T01:02:04.995Z,110.03
2018-03-04T01:04:31.435Z,108.82
2018-03-04T01:06:58.646Z,113.60
2018-03-04T01:09:25.052Z,108.45
2018-03-04T01:11:51.468Z,107.95
2018-03-04T01:14:18.624Z,116.00
2018-03-04T01:16:45.771Z,109.03
2018-03-04T01:19:12.274Z,113.10
2018-03-04T01:21:38.711Z,114.15
2018-03-04T01:24:05.167Z,113.12
2018-03-04T01:26:31.586Z,115.85
2018-03-04T01:28:58.010Z,117.05
2018-03-04T01:31:24.421Z,120.85
2018-03-04T01:33:50.839Z,116.88
2018-03-04T01:36:18.010Z,115.63
2018-03-04T01:38:44.551Z,110.93
2018-03-04T01:41:10.950Z,115.40
2018-03-04T01:43:38.135Z,126.55
2018-03-04T01:46:04.534Z,124.03
2018-03-04T01:48:31.684Z,122.20
2018-03-04T01:50:58.815Z,130.07
2018-03-04T01:53:25.972Z,131.20
2018-03-04T01:55:53.092Z,131.30
2018-03-04T01:58:19.504Z,130.53
2018-03-04T02:00:45.941Z,137.18
2018-03-04T02:03:12.354Z,124.40
2018-03-04T02:05:38.772Z,128.43
2018-03-04T02:08:05.907Z,128.10
2018-03-04T02:10:33.062Z,127.07
2018-03-04T02:13:00.243Z,117.43
2018-03-04T02:15:33.497Z,117.85
2018-03-04T02:17:59.894Z,124.35
2018-03-04T02:20:26.276Z,115.30
2018-03-04T02:22:53.440Z,122.72
2018-03-04T02:25:20.566Z,109.82
2018-03-04T02:27:46.994Z,118.45
2018-03-04T02:30:13.402Z,113.68
2018-03-04T02:32:39.843Z,116.82
2018-03-04T02:35:06.259Z,117.30
2018-03-04T02:37:32.634Z,113.50
2018-03-04T02:39:59.057Z,123.45
2018-03-04T02:42:25.572Z,118.03
2018-03-04T02:44:51.953Z,114.15
2018-03-04T02:47:19.104Z,114.07
2018-03-04T02:49:45.499Z,110.47
2018-03-04T02:52:11.910Z,119.47
2018-03-04T02:54:38.320Z,119.32
2018-03-04T02:57:05.443Z,114.07
2018-03-04T02:59:31.861Z,118.45
2018-03-04T03:01:58.259Z,116.43
2018-03-04T03:04:24.662Z,109.63
2018-03-04T03:06:51.812Z,116.85
2018-03-04T03:09:18.978Z,118.37
2018-03-04T03:11:46.138Z,115.47
2018-03-04T03:14:12.526Z,115.37
2018-03-04T03:16:38.924Z,120.10
2018-03-04T03:19:05.323Z,114.72
2018-03-04T03:21:32.446Z,117.90
2018-03-04T03:23:58.870Z,129.70
2018-03-04T03:26:25.269Z,126.87
2018-03-04T03:28:51.670Z,126.97
2018-03-04T03:31:18.792Z,129.15
2018-03-04T03:33:45.198Z,117.90
2018-03-04T03:36:11.587Z,129.20
2018-03-04T03:38:38.737Z,123.00
2018-03-04T03:41:05.869Z,118.80
2018-03-04T03:43:32.247Z,116.40
2018-03-04T03:45:58.657Z,120.15
2018-03-04T03:48:25.775Z,122.30
2018-03-04T03:50:52.177Z,119.87
2018-03-04T03:53:18.626Z,120.95
2018-03-04T03:55:45.012Z,119.07
2018-03-04T03:58:12.172Z,122.40
2018-03-04T04:00:39.304Z,120.40
2018-03-04T04:03:05.706Z,119.25
2018-03-04T04:05:32.233Z,113.68
2018-03-04T04:07:58.614Z,117.20
2018-03-04T04:10:25.018Z,119.85
2018-03-04T04:12:51.401Z,124.57
2018-03-04T04:15:18.606Z,128.20
2018-03-04T04:17:45.023Z,125.32
2018-03-04T04:20:11.415Z,121.23
2018-03-04T04:22:38.566Z,119.40
2018-03-04T04:25:05.690Z,109.87
2018-03-04T04:27:32.133Z,121.30
2018-03-04T04:29:58.535Z,122.45
2018-03-04T04:32:24.915Z,128.80
2018-03-04T04:34:52.057Z,126.60
2018-03-04T04:37:19.180Z,123.00
2018-03-04T04:39:45.594Z,126.50
2018-03-04T04:42:11.981Z,130.82
2018-03-04T04:44:38.385Z,128.23
2018-03-04T04:47:04.799Z,132.95
2018-03-04T04:49:31.186Z,135.20
2018-03-04T04:51:58.393Z,145.18
2018-03-04T04:54:24.764Z,140.30
2018-03-04T04:56:51.914Z,152.93
2018-03-04T04:59:19.065Z,146.73
2018-03-04T05:01:45.454Z,160.30
2018-03-04T05:04:11.860Z,160.02
2018-03-04T05:06:38.239Z,155.70
2018-03-04T05:09:04.677Z,148.20
2018-03-04T05:11:31.092Z,142.60
2018-03-04T05:13:57.465Z,156.30
2018-03-04T05:16:23.874Z,155.52
2018-03-04T05:18:50.278Z,157.50
2018-03-04T05:21:16.698Z,163.18
2018-03-04T05:23:43.127Z,165.32
2018-03-04T05:26:10.246Z,157.37
2018-03-04T05:28:36.678Z,174.45
2018-03-04T05:31:03.104Z,172.37
2018-03-04T05:33:51.282Z,166.12
2018-03-04T05:36:18.513Z,165.40
2018-03-04T05:38:44.928Z,173.45
2018-03-04T05:41:11.307Z,168.40
2018-03-04T05:43:38.466Z,179.75
2018-03-04T05:46:04.851Z,178.73
2018-03-04T05:48:32.204Z,187.00
2018-03-04T05:50:58.582Z,200.13
2018-03-04T05:53:25.783Z,186.18
2018-03-04T05:55:52.187Z,186.93
2018-03-04T05:58:18.594Z,199.38
2018-03-04T06:00:45.750Z,190.15
2018-03-04T06:03:12.879Z,193.80
2018-03-04T06:05:39.301Z,191.63
2018-03-04T06:08:05.704Z,191.37
2018-03-04T06:10:32.160Z,189.73
2018-03-04T06:12:58.579Z,190.02
2018-03-04T06:15:24.985Z,189.95
2018-03-04T06:17:51.373Z,184.35
2018-03-04T06:20:17.791Z,185.63
2018-03-04T06:22:44.253Z,169.40
2018-03-04T06:25:10.634Z,169.95
2018-03-04T06:27:37.041Z,165.75
2018-03-04T06:30:04.160Z,164.73
2018-03-04T06:32:30.622Z,170.70
2018-03-04T06:34:57.735Z,167.35
2018-03-04T06:37:24.131Z,160.77
2018-03-04T06:39:50.536Z,154.63
2018-03-04T06:42:17.653Z,154.20
2018-03-04T06:44:44.059Z,147.82
2018-03-04T06:47:10.592Z,144.35
2018-03-04T06:49:37.001Z,139.00
2018-03-04T06:52:04.130Z,137.50
2018-03-04T06:54:30.582Z,138.57
2018-03-04T06:56:57.727Z,141.90
2018-03-04T06:59:24.858Z,134.87
2018-03-04T07:01:51.248Z,135.25
2018-03-04T07:04:17.629Z,129.23
2018-03-04T07:06:44.037Z,133.95
2018-03-04T07:09:10.429Z,144.05
2018-03-04T07:11:37.647Z,132.12
2018-03-04T07:14:04.102Z,138.60
2018-03-04T07:16:31.357Z,132.12
2018-03-04T07:18:58.555Z,132.45
2018-03-04T07:21:24.957Z,128.40
2018-03-04T07:23:52.094Z,129.25
2018-03-04T07:26:19.244Z,125.38
2018-03-04T07:28:45.688Z,125.40
2018-03-04T07:31:12.831Z,127.60
2018-03-04T07:33:40.024Z,125.37
2018-03-04T07:36:06.443Z,120.17
2018-03-04T07:38:32.822Z,119.75
2018-03-04T07:40:59.226Z,123.35
2018-03-04T07:43:25.623Z,122.22
2018-03-04T07:45:52.778Z,125.43
2018-03-04T07:48:27.014Z,123.30
2018-03-04T07:50:53.471Z,128.40
2018-03-04T07:53:19.879Z,127.07
2018-03-04T07:55:46.258Z,124.85
2018-03-04T07:58:12.671Z,121.72
2018-03-04T08:00:39.062Z,123.90
2018-03-04T08:03:06.230Z,127.55
2018-03-04T08:05:32.658Z,125.62
2018-03-04T08:07:59.823Z,125.38
2018-03-04T08:10:26.211Z,124.12
2018-03-04T08:12:52.614Z,123.18
2018-03-04T08:15:19.057Z,121.97
2018-03-04T08:17:45.445Z,122.47
2018-03-04T08:20:11.908Z,122.45
2018-03-04T08:22:38.336Z,119.40
2018-03-04T08:25:17.057Z,119.85
2018-03-04T08:27:55.720Z,120.28
2018-03-04T08:30:22.153Z,111.30
2018-03-04T08:32:48.586Z,114.70
2018-03-04T08:35:14.982Z,114.93
2018-03-04T08:37:41.383Z,119.85
2018-03-04T08:40:08.527Z,121.13
2018-03-04T08:42:35.005Z,119.62
2018-03-04T08:45:01.434Z,111.80
2018-03-04T08:47:27.841Z,112.68
2018-03-04T08:49:54.975Z,107.85
2018-03-04T08:52:21.374Z,107.40
2018-03-04T08:54:47.764Z,105.00
2018-03-04T08:57:14.900Z,111.85
2018-03-04T08:59:41.322Z,104.47
2018-03-04T09:02:07.701Z,109.30
2018-03-04T09:04:34.120Z,103.90
2018-03-04T09:07:01.248Z,106.57
2018-03-04T09:09:27.659Z,98.28
2018-03-04T09:11:54.095Z,108.25
2018-03-04T09:14:20.496Z,103.07
2018-03-04T09:16:46.902Z,101.05
2018-03-04T09:19:14.051Z,101.43
2018-03-04T09:21:41.214Z,106.40
2018-03-04T09:24:08.359Z,98.85
2018-03-04T09:26:35.532Z,99.35
2018-03-04T09:29:01.966Z,100.80
2018-03-04T09:31:28.366Z,103.43
2018-03-04T09:33:54.822Z,97.70
2018-03-04T09:36:21.969Z,105.60
2018-03-04T09:38:49.163Z,100.05
2018-03-04T09:41:15.584Z,99.40
2018-03-04T09:43:42.031Z,99.22
2018-03-04T09:46:08.455Z,98.70
2018-03-04T09:48:34.902Z,99.13
2018-03-04T09:51:01.343Z,102.22
2018-03-04T09:53:27.804Z,99.62
2018-03-04T09:55:54.204Z,98.28
2018-03-04T09:58:20.677Z,98.07
2018-03-04T10:00:47.849Z,97.12
2018-03-04T10:03:15.029Z,99.07
2018-03-04T10:05:41.451Z,93.12
2018-03-04T10:08:07.923Z,96.10
2018-03-04T10:10:34.320Z,94.13
2018-03-04T10:13:00.742Z,99.03
2018-03-04T10:15:27.917Z,95.55
2018-03-04T10:17:54.340Z,95.85
2018-03-04T10:20:20.836Z,94.68
2018-03-04T10:22:47.285Z,88.03
2018-03-04T10:25:13.773Z,89.47
2018-03-04T10:27:40.219Z,93.73
2018-03-04T10:30:06.661Z,92.12
2018-03-04T10:32:33.082Z,94.28
2018-03-04T10:34:59.494Z,89.40
2018-03-04T10:37:26.153Z,91.35
2018-03-04T10:39:52.623Z,90.22
2018-03-04T10:42:19.821Z,83.65
2018-03-04T10:44:46.257Z,86.77
2018-03-04T10:47:12.712Z,87.30
2018-03-04T10:49:39.138Z,84.10
2018-03-04T10:52:05.586Z,84.45
2018-03-04T10:54:32.010Z,88.20
2018-03-04T10:56:58.398Z,80.78
2018-03-04T10:59:25.612Z,84.68
2018-03-04T11:01:52.841Z,87.12
2018-03-04T11:04:19.312Z,83.15
2018-03-04T11:06:45.750Z,81.53
2018-03-04T11:09:12.239Z,76.03
2018-03-04T11:11:38.694Z,73.22
2018-03-04T11:14:05.118Z,70.60
2018-03-04T11:16:31.548Z,64.95
2018-03-04T11:18:57.977Z,65.28
2018-03-04T11:21:24.398Z,67.18
2018-03-04T11:23:51.667Z,65.20
2018-03-04T11:26:18.189Z,63.00
2018-03-04T11:28:45.452Z,61.92
2018-03-04T11:31:11.799Z,62.62
2018-03-04T11:33:38.226Z,65.03
2018-03-04T11:36:04.634Z,63.70
2018-03-04T11:38:31.851Z,62.22
2018-03-04T11:40:58.267Z,61.95
2018-03-04T11:43:31.682Z,53.30
2018-03-04T11:45:58.110Z,64.57
2018-03-04T11:48:24.527Z,55.97
2018-03-04T11:50:50.970Z,56.40
2018-03-04T11:53:17.381Z,53.03
2018-03-04T11:55:44.551Z,50.58
2018-03-04T11:58:10.975Z,48.58
2018-03-04T12:00:37.380Z,42.53
2018-03-04T12:03:04.622Z,40.88
2018-03-04T12:05:31.763Z,36.88
2018-03-04T12:07:58.231Z,46.13
2018-03-04T12:10:24.589Z,43.30
2018-03-04T12:12:50.978Z,41.30
2018-03-04T12:15:18.164Z,41.65
2018-03-04T12:17:44.600Z,44.70
2018-03-04T12:20:10.991Z,43.50
2018-03-04T12:22:37.496Z,44.25
2018-03-04T12:25:03.982Z,39.78
2018-03-04T12:27:31.158Z,39.03
2018-03-04T12:29:57.607Z,31.98
2018-03-04T12:32:24.000Z,40.97
2018-03-04T12:34:51.199Z,38.00
2018-03-04T12:37:17.579Z,35.65
2018-03-04T12:39:44.742Z,39.78
2018-03-04T12:42:12.017Z,36.25
2018-03-04T12:44:38.425Z,35.15
2018-03-04T12:47:05.884Z,40.05
2018-03-04T12:49:33.009Z,35.47
2018-03-04T12:51:59.481Z,40.25
2018-03-04T12:54:26.634Z,39.55
2018-03-04T12:56:53.106Z,39.00
2018-03-04T12:59:19.578Z,42.58
2018-03-04T13:01:46.035Z,38.85
2018-03-04T13:04:12.525Z,40.60
2018-03-04T13:06:38.923Z,38.20
2018-03-04T13:09:05.420Z,42.35
2018-03-04T13:11:31.822Z,37.08
2018-03-04T13:13:58.257Z,37.72
2018-03-04T13:16:24.755Z,40.05
2018-03-04T13:18:51.285Z,36.20
2018-03-04T13:21:18.565Z,36.47
2018-03-04T13:23:45.030Z,36.20
2018-03-04T13:26:11.528Z,36.58
2018-03-04T13:28:38.029Z,34.40
2018-03-04T13:31:04.499Z,35.67
2018-03-04T13:33:31.004Z,36.33
2018-03-04T13:35:58.382Z,38.72
2018-03-04T13:38:24.769Z,37.85
2018-03-04T13:40:51.191Z,33.60
2018-03-04T13:43:17.633Z,32.15
2018-03-04T13:45:44.041Z,38.55
2018-03-04T13:48:10.483Z,32.47
2018-03-04T13:50:36.998Z,39.50
2018-03-04T13:53:03.474Z,43.10
2018-03-04T13:55:29.979Z,37.20
2018-03-04T13:57:56.482Z,37.45
2018-03-04T14:00:23.691Z,34.35
2018-03-04T14:02:50.102Z,37.78
2018-03-04T14:05:16.535Z,35.20
2018-03-04T14:07:42.981Z,38.55
2018-03-04T16:36:32.953Z,45.55
2018-03-04T16:38:59.381Z,31.62
2018-03-04T16:41:25.831Z,31.33
2018-03-04T16:43:52.232Z,38.72
2018-03-04T16:46:18.692Z,33.50
2018-03-04T16:48:45.089Z,33.22
2018-03-04T16:51:11.478Z,35.97
2018-03-04T16:53:37.909Z,37.33
2018-03-04T16:56:04.321Z,42.90
2018-03-04T16:58:30.723Z,38.15
2018-03-04T17:00:57.865Z,43.53
2018-03-04T17:03:25.025Z,46.47
2018-03-04T17:05:51.409Z,46.37
2018-03-04T17:08:17.823Z,44.55
2018-03-04T17:10:44.238Z,39.97
2018-03-04T17:44:53.450Z,50.70
2018-03-04T17:47:19.910Z,53.67
2018-03-04T17:49:47.035Z,54.60
2018-03-04T17:52:13.459Z,47.53
2018-03-04T17:54:39.874Z,57.78
2018-03-04T17:57:06.317Z,50.50
2018-03-04T17:59:32.718Z,53.00
2018-03-04T18:01:59.287Z,46.80
2018-03-04T18:04:25.739Z,44.95
2018-03-04T18:06:52.157Z,55.90
2018-03-04T18:09:18.654Z,51.97
2018-03-04T18:11:45.061Z,55.63
2018-03-04T18:14:11.513Z,53.65
2018-03-04T18:16:38.660Z,54.50
2018-03-04T18:19:05.852Z,59.42
2018-03-04T18:21:32.310Z,53.55
2018-03-04T18:23:58.724Z,57.95
2018-03-04T18:26:25.187Z,55.35
2018-03-04T18:28:51.585Z,60.92
2018-03-04T18:31:17.989Z,57.22
2018-03-04T18:33:45.121Z,54.28
2018-03-04T18:36:11.535Z,54.80
2018-03-04T18:38:37.991Z,55.83
2018-03-04T18:41:04.490Z,53.38
2018-03-04T18:43:30.949Z,53.78
2018-03-04T18:45:57.480Z,58.30
2018-03-04T18:48:23.959Z,54.17
2018-03-04T18:50:51.148Z,61.63
2018-03-04T18:53:17.552Z,55.80
2018-03-04T18:55:44.682Z,61.75
2018-03-04T18:58:11.837Z,63.78
2018-03-04T19:00:38.296Z,70.22
2018-03-04T19:03:04.722Z,67.03
2018-03-04T19:05:31.890Z,68.93
2018-03-04T19:07:58.290Z,66.20
2018-03-04T19:10:25.450Z,67.75
2018-03-04T19:12:52.590Z,69.05
2018-03-04T19:15:19.030Z,73.62
2018-03-04T19:17:46.176Z,65.35
2018-03-04T19:20:13.326Z,71.25
2018-03-04T19:22:39.705Z,69.07
2018-03-04T19:25:06.135Z,70.70
2018-03-04T19:27:32.604Z,71.85
2018-03-04T19:29:59.050Z,70.97
2018-03-04T19:32:25.429Z,73.18
2018-03-04T19:34:51.912Z,74.47
2018-03-04T19:37:18.345Z,72.10
2018-03-04T19:39:44.750Z,72.82
2018-03-04T19:42:11.152Z,76.12
2018-03-04T19:44:38.335Z,76.03
2018-03-04T19:47:04.831Z,78.45
2018-03-04T19:49:32.144Z,79.45
2018-03-04T19:51:58.562Z,78.18
2018-03-04T19:54:24.990Z,78.10
2018-03-04T19:56:51.503Z,78.67
2018-03-04T19:59:18.662Z,78.78
2018-03-04T20:01:46.208Z,76.30
2018-03-04T20:04:13.715Z,80.57
2018-03-04T20:06:40.458Z,76.90
2018-03-04T20:09:06.841Z,75.55
2018-03-04T20:11:33.999Z,78.95
2018-03-04T20:14:00.442Z,83.40
2018-03-04T20:16:27.623Z,76.82
2018-03-04T20:18:55.472Z,77.15
2018-03-04T20:21:21.926Z,76.80
2018-03-04T20:23:48.343Z,78.03
2018-03-04T20:26:14.784Z,76.33
2018-03-04T20:28:41.175Z,76.72
2018-03-04T20:31:07.634Z,80.57
2018-03-04T20:33:34.785Z,73.68
2018-03-04T20:36:04.184Z,71.50
2018-03-04T20:38:31.498Z,76.77
2018-03-04T20:40:58.230Z,76.43
2018-03-04T20:43:24.694Z,76.62
2018-03-04T20:45:51.088Z,78.00
2018-03-04T20:48:17.497Z,74.77
2018-03-04T20:50:43.940Z,79.28
2018-03-04T20:53:10.358Z,78.93
2018-03-04T20:55:37.540Z,78.30
2018-03-04T20:58:04.641Z,82.00
2018-03-04T21:00:31.805Z,79.22
2018-03-04T21:02:58.966Z,81.00
2018-03-04T21:05:26.159Z,80.95
2018-03-04T21:07:52.539Z,74.45
2018-03-04T21:10:19.919Z,82.57
2018-03-04T21:12:46.326Z,76.97
2018-03-04T21:15:13.469Z,78.75
2018-03-04T21:17:39.906Z,77.27
2018-03-04T21:20:06.353Z,78.47
2018-03-04T21:22:33.525Z,72.62
2018-03-04T21:24:59.903Z,73.28
2018-03-04T21:27:26.324Z,74.62
2018-03-04T21:29:52.707Z,75.25
2018-03-04T21:32:19.899Z,79.05
2018-03-04T21:34:46.288Z,75.10
2018-03-04T21:37:13.451Z,81.00
2018-03-04T21:39:40.599Z,76.15
2018-03-04T21:42:07.794Z,81.72
2018-03-04T21:44:34.223Z,80.43
2018-03-04T21:47:00.653Z,75.18
2018-03-04T21:49:27.066Z,78.25
2018-03-04T21:51:53.491Z,76.20
2018-03-04T21:54:20.707Z,74.12
2018-03-04T21:56:47.102Z,82.20
2018-03-04T21:59:13.567Z,79.70
2018-03-04T22:01:39.979Z,78.57
2018-03-04T22:04:06.395Z,76.22
2018-03-04T22:06:32.845Z,78.28
2018-03-04T22:08:59.249Z,76.12
2018-03-04T22:11:26.511Z,77.53
2018-03-04T22:13:53.642Z,79.97
2018-03-04T22:16:20.801Z,75.20
2018-03-04T22:18:47.951Z,76.80
2018-03-04T22:21:15.090Z,80.50
2018-03-04T22:23:41.474Z,76.87
2018-03-04T22:26:07.902Z,77.15
2018-03-04T22:28:34.322Z,76.75
2018-03-04T22:31:01.447Z,81.00
2018-03-04T22:33:27.867Z,80.28
2018-03-04T22:35:54.274Z,82.55
2018-03-04T22:38:20.738Z,79.23
2018-03-04T22:40:47.120Z,77.47
2018-03-04T22:43:13.527Z,81.22
2018-03-04T22:45:40.680Z,80.65
2018-03-04T22:48:07.055Z,82.50
2018-03-04T22:50:33.523Z,82.33
2018-03-04T22:52:59.926Z,78.43
2018-03-04T22:55:26.306Z,78.75
2018-03-04T22:57:59.850Z,83.93
2018-03-04T23:00:26.242Z,83.32
2018-03-04T23:02:53.424Z,77.70
2018-03-04T23:05:19.844Z,81.32
2018-03-04T23:07:46.990Z,76.40
2018-03-04T23:10:14.223Z,82.40
2018-03-04T23:12:40.571Z,78.30
2018-03-04T23:15:06.980Z,79.10
2018-03-04T23:17:33.353Z,77.82
2018-03-04T23:20:00.503Z,83.32
2018-03-04T23:22:27.627Z,78.93
2018-03-04T23:24:54.066Z,76.80
2018-03-04T23:27:20.468Z,82.70
2018-03-04T23:29:46.910Z,81.37
2018-03-04T23:32:13.301Z,86.75
2018-03-04T23:34:39.717Z,88.95
2018-03-04T23:37:06.834Z,90.85
2018-03-04T23:39:33.249Z,91.50
2018-03-04T23:41:59.635Z,91.07
2018-03-04T23:44:26.766Z,95.00
2018-03-04T23:46:53.899Z,97.35
2018-03-04T23:49:20.331Z,93.78
2018-03-04T23:51:46.755Z,88.20
2018-03-04T23:54:13.130Z,83.62
2018-03-04T23:56:39.533Z,83.03
2018-03-04T23:59:05.915Z,85.82
